Time;durP1;ratioP1;P1;durP2;ratioP2;P2;SDS_P1;SDS_P2;PMS_P1;PMS_P2;Temp;Humidity;BMP_temperature;BMP_pressure;BME280_temperature;BME280_humidity;BME280_pressure;Samples;Min_cycle;Max_cycle;Signal;HPM_P1;HPM_P2
2022/09/29 00:00:35;;;;;;;20.02;11.85;;;;;;;8.09;94.68;98714.14;1689476;84;25518;-70
2022/09/29 00:03:05;;;;;;;23.40;11.25;;;;;;;8.09;94.65;98723.56;1689512;84;25995;-70
2022/09/29 00:05:31;;;;;;;25.20;11.75;;;;;;;8.09;94.95;98726.27;1689500;84;25676;-70
2022/09/29 00:07:58;;;;;;;26.62;12.43;;;;;;;8.09;94.90;98724.91;1712105;82;25541;-70
2022/09/29 00:10:24;;;;;;;25.32;12.55;;;;;;;8.10;94.97;98731.86;1704519;82;26159;-72
2022/09/29 00:12:51;;;;;;;20.27;11.30;;;;;;;8.12;95.12;98723.45;1736576;82;25530;-70
2022/09/29 00:15:17;;;;;;;25.77;13.28;;;;;;;8.16;95.31;98722.47;1725253;82;27326;-70
2022/09/29 00:17:43;;;;;;;25.20;12.07;;;;;;;8.18;95.22;98729.66;1724071;82;25501;-70
2022/09/29 00:20:09;;;;;;;27.52;12.45;;;;;;;8.19;95.22;98719.69;1706982;82;25584;-70
2022/09/29 00:22:35;;;;;;;24.90;13.48;;;;;;;8.21;95.40;98711.48;1717688;82;25697;-70
2022/09/29 00:25:02;;;;;;;25.05;12.85;;;;;;;8.23;95.46;98716.55;1714606;82;25819;-70
2022/09/29 00:27:28;;;;;;;21.00;11.85;;;;;;;8.23;95.53;98705.77;1704541;82;27932;-70
2022/09/29 00:29:54;;;;;;;25.92;12.60;;;;;;;8.26;95.57;98716.43;1715048;82;25474;-70
2022/09/29 00:32:20;;;;;;;22.50;11.53;;;;;;;8.27;95.63;98720.70;1719289;82;25507;-70
2022/09/29 00:34:47;;;;;;;24.60;13.00;;;;;;;8.30;95.78;98730.83;1717887;82;25624;-70
2022/09/29 00:37:13;;;;;;;21.37;12.33;;;;;;;8.31;95.82;98713.53;1717660;81;25384;-70
2022/09/29 00:39:39;;;;;;;25.00;12.58;;;;;;;8.31;95.91;98718.38;1717731;82;27305;-70
2022/09/29 00:42:05;;;;;;;22.42;12.37;;;;;;;8.33;95.97;98720.74;1738764;81;25706;-70
2022/09/29 00:45:07;;;;;;;21.73;12.37;;;;;;;8.34;95.81;98723.11;1740784;82;25589;-70
2022/09/29 00:47:36;;;;;;;19.25;11.25;;;;;;;8.36;95.86;98723.55;1740737;82;25665;-68
2022/09/29 00:50:14;;;;;;;20.80;13.43;;;;;;;8.36;95.63;98724.91;1740950;81;25624;-68
2022/09/29 00:52:46;;;;;;;19.02;13.25;;;;;;;8.36;95.59;98722.20;1740796;82;27514;-69
2022/09/29 00:55:26;;;;;;;18.37;12.07;;;;;;;8.36;95.55;98712.78;1741290;80;25653;-68
2022/09/29 00:58:04;;;;;;;;;;;;;;;8.38;95.51;98720.53;1744001;80;25550;-70
2022/09/29 01:00:31;;;;;;;17.00;11.93;;;;;;;8.39;95.71;98732.33;1740756;82;25740;-69
2022/09/29 01:03:07;;;;;;;20.32;12.43;;;;;;;8.37;95.48;98729.16;1740742;82;25636;-69
2022/09/29 01:05:44;;;;;;;16.80;12.05;;;;;;;8.37;95.30;98715.68;1741113;80;27321;-69
2022/09/29 01:08:33;;;;;;;17.60;12.30;;;;;;;8.35;95.32;98724.66;1740704;82;25466;-68
2022/09/29 01:11:01;;;;;;;20.73;11.50;;;;;;;8.36;95.27;98728.13;1740970;82;25466;-69
2022/09/29 01:13:29;;;;;;;16.23;10.88;;;;;;;8.33;95.26;98727.48;1740759;81;25663;-70
2022/09/29 01:15:55;;;;;;;16.48;12.00;;;;;;;8.32;95.08;98731.28;1740744;82;25402;-70
2022/09/29 01:18:21;;;;;;;20.70;12.78;;;;;;;8.31;95.10;98729.69;1740748;82;27907;-71
2022/09/29 01:21:26;;;;;;;21.73;11.95;;;;;;;8.29;94.93;98724.66;1740750;81;25567;-71
2022/09/29 01:24:06;;;;;;;18.62;11.93;;;;;;;8.28;95.06;98732.50;1740775;82;25668;-69
2022/09/29 01:27:10;;;;;;;15.13;10.98;;;;;;;8.25;94.86;98734.50;1740410;80;25798;-70
2022/09/29 01:30:10;;;;;;;15.88;11.57;;;;;;;8.25;94.90;98747.20;1737402;81;25560;-69
2022/09/29 01:33:00;;;;;;;18.65;11.33;;;;;;;8.22;94.84;98737.86;1733009;82;27343;-68
2022/09/29 01:35:41;;;;;;;16.17;11.57;;;;;;;8.20;94.94;98746.83;1747064;80;25944;-69
2022/09/29 01:38:15;;;;;;;19.00;11.65;;;;;;;8.18;94.75;98750.42;1750949;80;25577;-69
2022/09/29 01:41:11;;;;;;;19.55;11.57;;;;;;;8.15;94.77;98755.11;1748224;81;25677;-68
2022/09/29 01:43:58;;;;;;;16.52;10.68;;;;;;;8.12;94.69;98757.92;1749601;81;25557;-70
2022/09/29 01:46:36;;;;;;;13.88;10.55;;;;;;;8.08;94.53;98758.34;1751618;81;27340;-69
2022/09/29 01:49:05;;;;;;;16.55;11.25;;;;;;;8.04;94.60;98754.17;1750166;81;25838;-69
2022/09/29 01:51:47;;;;;;;14.65;10.40;;;;;;;8.01;94.62;98750.78;1751777;81;25667;-69
2022/09/29 01:54:21;;;;;;;17.20;10.82;;;;;;;7.99;94.71;98752.24;1762080;80;25623;-68
2022/09/29 01:56:52;;;;;;;13.70;10.58;;;;;;;7.95;94.71;98759.39;1745674;81;25455;-69
2022/09/29 01:59:24;;;;;;;13.68;10.13;;;;;;;7.92;94.65;98754.69;1761001;81;27496;-68
2022/09/29 02:01:56;;;;;;;15.50;10.23;;;;;;;7.92;94.65;98754.69;1761023;81;25717;-69
2022/09/29 02:04:30;;;;;;;17.57;11.43;;;;;;;7.90;94.74;98752.85;1761896;81;25478;-69
2022/09/29 02:07:11;;;;;;;18.80;10.40;;;;;;;7.86;94.68;98760.23;1762171;79;25684;-69
2022/09/29 02:09:46;;;;;;;16.95;11.55;;;;;;;7.84;94.72;98761.13;1754226;81;25636;-68
2022/09/29 02:12:18;;;;;;;17.25;12.18;;;;;;;7.82;94.85;98763.36;1753400;81;27314;-69
2022/09/29 02:14:47;;;;;;;20.68;10.98;;;;;;;7.82;95.11;98767.97;1732131;81;25584;-69
2022/09/29 02:17:20;;;;;;;16.00;10.90;;;;;;;7.79;95.07;98765.92;1762213;81;25379;-68
2022/09/29 02:19:50;;;;;;;14.00;10.38;;;;;;;7.78;95.02;98770.53;1761740;81;26889;-68
2022/09/29 02:22:17;;;;;;;15.25;10.30;;;;;;;7.78;94.98;98767.84;1762113;81;25636;-69
2022/09/29 02:24:44;;;;;;;18.45;11.88;;;;;;;7.76;95.09;98770.61;1762037;81;27895;-68
2022/09/29 02:27:11;;;;;;;16.32;10.53;;;;;;;7.73;94.94;98772.06;1762000;80;25557;-68
2022/09/29 02:29:38;;;;;;;18.27;10.98;;;;;;;7.71;94.80;98768.89;1761995;81;25458;-69
2022/09/29 02:32:08;;;;;;;18.37;11.80;;;;;;;7.69;94.95;98778.42;1762030;81;25689;-68
2022/09/29 02:34:42;;;;;;;16.90;10.85;;;;;;;7.69;94.99;98783.80;1760600;81;25464;-69
2022/09/29 02:37:49;;;;;;;16.07;11.40;;;;;;;7.67;94.96;98788.94;1764765;80;27337;-68
2022/09/29 02:40:24;;;;;;;16.67;11.35;;;;;;;7.64;95.02;98786.92;1772595;80;25549;-69
2022/09/29 02:43:31;;;;;;;18.92;11.05;;;;;;;7.63;95.12;98788.59;1754048;80;25669;-69
2022/09/29 02:46:36;;;;;;;20.00;11.63;;;;;;;7.61;95.12;98780.84;1748768;81;25716;-68
2022/09/29 02:49:25;;;;;;;14.60;9.58;;;;;;;7.60;95.22;98775.22;1776532;80;25362;-68
2022/09/29 02:52:10;;;;;;;18.00;10.28;;;;;;;7.60;95.37;98781.95;1778461;80;27303;-69
2022/09/29 02:54:45;;;;;;;16.30;10.58;;;;;;;7.59;95.33;98780.36;1719325;82;25697;-69
2022/09/29 02:57:19;;;;;;;15.70;10.30;;;;;;;7.59;95.33;98787.09;1776740;80;25619;-68
2022/09/29 03:00:04;;;;;;;16.57;10.70;;;;;;;7.59;95.35;98789.78;1752139;80;25679;-68
2022/09/29 03:02:28;;;;;;;18.57;11.40;;;;;;;7.59;95.40;98789.78;1709695;81;25569;-68
2022/09/29 03:04:54;;;;;;;19.65;12.03;;;;;;;7.58;95.28;98798.98;1752121;81;27356;-69
2022/09/29 03:07:21;;;;;;;15.88;11.28;;;;;;;7.55;95.24;98809.04;1751970;81;27134;-68
2022/09/29 03:09:47;;;;;;;17.82;10.90;;;;;;;7.55;95.12;98798.28;1752037;81;25696;-68
2022/09/29 03:12:13;;;;;;;17.02;10.93;;;;;;;7.52;95.27;98786.81;1752077;81;25810;-71
2022/09/29 03:14:40;;;;;;;19.50;11.45;;;;;;;7.52;95.25;98795.45;1752143;81;25585;-71
2022/09/29 03:17:06;;;;;;;19.60;11.75;;;;;;;7.52;95.26;98794.11;1752130;81;27322;-71
2022/09/29 03:19:32;;;;;;;18.95;11.40;;;;;;;7.48;95.47;98802.82;1730276;82;25394;-71
2022/09/29 03:21:58;;;;;;;14.63;9.98;;;;;;;7.45;95.24;98795.39;1752148;81;25418;-71
2022/09/29 03:24:25;;;;;;;19.25;11.35;;;;;;;7.44;95.37;98803.25;1752126;81;34676;-71
2022/09/29 03:26:51;;;;;;;18.90;11.10;;;;;;;7.43;95.41;98821.84;1745777;81;25441;-69
2022/09/29 03:29:17;;;;;;;16.45;10.98;;;;;;;7.44;95.85;98827.46;1747314;81;28137;-69
2022/09/29 03:31:44;;;;;;;17.60;11.73;;;;;;;7.44;95.79;98839.56;1752086;81;25391;-70
2022/09/29 03:34:10;;;;;;;18.12;11.57;;;;;;;7.45;96.19;98847.86;1752075;81;25419;-69
2022/09/29 03:36:36;;;;;;;20.88;10.93;;;;;;;7.45;96.12;98845.16;1751983;80;34854;-69
2022/09/29 03:39:02;;;;;;;17.85;11.48;;;;;;;7.48;96.26;98853.16;1752261;81;25446;-69
2022/09/29 03:41:29;;;;;;;21.05;11.40;;;;;;;7.50;96.40;98844.77;1752285;81;27544;-70
2022/09/29 03:43:55;;;;;;;18.15;11.22;;;;;;;7.51;96.44;98844.45;1702295;83;25814;-69
2022/09/29 03:46:21;;;;;;;16.55;10.43;;;;;;;7.52;96.28;98847.35;1762768;81;25484;-69
2022/09/29 03:48:47;;;;;;;20.82;14.20;;;;;;;7.53;96.33;98844.13;1775755;80;25606;-69
2022/09/29 03:51:13;;;;;;;16.73;10.70;;;;;;;7.54;96.25;98841.66;1778619;80;32320;-69
2022/09/29 03:53:39;;;;;;;16.23;11.43;;;;;;;7.52;96.12;98847.35;1778576;80;27313;-69
2022/09/29 03:56:05;;;;;;;18.17;12.20;;;;;;;7.52;96.19;98846.01;1778478;80;27144;-70
2022/09/29 03:58:34;;;;;;;17.80;11.30;;;;;;;7.53;96.07;98862.40;1768486;80;25550;-70
2022/09/29 04:01:00;;;;;;;18.57;12.73;;;;;;;7.52;96.02;98861.38;1756849;80;25708;-71
2022/09/29 04:03:28;;;;;;;17.65;11.60;;;;;;;7.51;96.07;98853.86;1778598;80;25574;-70
2022/09/29 04:05:54;;;;;;;17.55;12.10;;;;;;;7.51;95.91;98857.90;1778579;80;27326;-70
2022/09/29 04:08:20;;;;;;;21.73;12.23;;;;;;;7.49;95.69;98862.80;1778423;80;25773;-69
2022/09/29 04:10:47;;;;;;;16.97;11.93;;;;;;;7.48;95.70;98854.50;1777266;80;27118;-69
2022/09/29 04:13:14;;;;;;;20.68;13.13;;;;;;;7.45;95.53;98857.27;1762697;81;26213;-69
2022/09/29 04:16:01;;;;;;;17.65;12.30;;;;;;;7.45;95.60;98862.66;1773798;80;25623;-69
2022/09/29 04:18:27;;;;;;;19.17;11.53;;;;;;;7.44;95.52;98858.40;1701712;83;27357;-70
2022/09/29 04:20:59;;;;;;;19.07;12.73;;;;;;;7.41;95.43;98856.35;1710089;83;25631;-70
2022/09/29 04:23:23;;;;;;;20.90;11.95;;;;;;;7.40;95.50;98856.11;1709859;83;25545;-69
2022/09/29 04:25:49;;;;;;;21.07;13.72;;;;;;;7.40;95.40;98865.52;1710198;83;25620;-69
2022/09/29 04:28:15;;;;;;;20.25;12.73;;;;;;;7.37;95.26;98855.97;1710293;83;25482;-69
2022/09/29 04:30:41;;;;;;;20.48;14.53;;;;;;;7.45;95.37;98873.98;1710286;83;27310;-70
2022/09/29 04:33:07;;;;;;;21.23;12.98;;;;;;;7.45;95.37;98873.98;1710183;83;25651;-69
2022/09/29 04:35:33;;;;;;;19.98;13.25;;;;;;;7.33;95.25;98863.89;1710202;83;25648;-70
2022/09/29 04:37:59;;;;;;;22.40;14.20;;;;;;;7.32;95.21;98866.90;1710194;83;25677;-70
2022/09/29 04:40:26;;;;;;;18.87;12.80;;;;;;;7.32;95.28;98865.02;1707571;83;25459;-69
2022/09/29 04:42:52;;;;;;;21.30;13.58;;;;;;;7.28;95.10;98860.81;1670042;84;28003;-69
2022/09/29 04:45:18;;;;;;;22.15;12.80;;;;;;;7.28;95.18;98864.06;1699608;83;26097;-69
2022/09/29 04:47:44;;;;;;;20.27;14.45;;;;;;;7.26;95.17;98869.77;1710194;83;25572;-69
2022/09/29 04:50:11;;;;;;;20.23;12.93;;;;;;;7.25;95.15;98861.48;1710198;83;25663;-70
2022/09/29 04:52:41;;;;;;;18.98;12.65;;;;;;;7.22;95.20;98864.80;1710311;83;25261;-70
2022/09/29 04:55:10;;;;;;;24.67;13.45;;;;;;;7.21;95.02;98867.81;1710366;83;27308;-69
2022/09/29 04:57:38;;;;;;;21.87;13.45;;;;;;;7.16;95.15;98870.11;1710201;83;25722;-69
2022/09/29 05:00:06;;;;;;;24.18;14.63;;;;;;;7.15;95.29;98871.23;1710132;83;25455;-70
2022/09/29 05:02:35;;;;;;;19.42;12.98;;;;;;;7.13;95.43;98881.50;1710096;83;26340;-70
2022/09/29 05:05:02;;;;;;;24.27;13.85;;;;;;;7.10;95.40;98881.60;1706736;83;25495;-70
2022/09/29 05:07:29;;;;;;;22.00;14.58;;;;;;;7.09;95.58;98880.01;1697419;83;28102;-70
2022/09/29 05:09:56;;;;;;;25.88;14.30;;;;;;;7.14;95.78;98883.66;1695211;84;25705;-69
2022/09/29 05:12:22;;;;;;;25.50;15.53;;;;;;;7.14;95.88;98887.69;1703534;83;25597;-69
2022/09/29 05:14:48;;;;;;;23.75;14.40;;;;;;;7.14;95.82;98889.81;1695234;84;25661;-69
2022/09/29 05:17:15;;;;;;;20.92;13.18;;;;;;;7.15;96.07;98889.25;1657026;84;25711;-69
2022/09/29 05:19:41;;;;;;;22.37;14.75;;;;;;;7.15;95.99;98892.75;1634918;86;27318;-69
2022/09/29 05:22:07;;;;;;;25.10;14.83;;;;;;;7.16;96.26;98898.34;1634851;87;25662;-69
2022/09/29 05:24:34;;;;;;;20.65;13.28;;;;;;;7.18;96.25;98904.19;1632749;86;25497;-70
2022/09/29 05:27:00;;;;;;;23.62;14.28;;;;;;;7.20;96.53;98908.72;1664465;85;25577;-70
2022/09/29 05:29:26;;;;;;;30.17;16.90;;;;;;;7.21;96.36;98911.63;1678303;84;25656;-70
2022/09/29 05:31:52;;;;;;;21.07;13.55;;;;;;;7.21;96.25;98914.31;1677405;85;27523;-69
2022/09/29 05:34:22;;;;;;;22.35;14.58;;;;;;;7.22;96.41;98909.18;1646641;86;25636;-69
2022/09/29 05:36:48;;;;;;;24.05;13.15;;;;;;;7.24;96.46;98908.30;1633125;87;25476;-69
2022/09/29 05:39:16;;;;;;;24.90;15.20;;;;;;;7.24;96.46;98908.30;1634956;87;25746;-69
2022/09/29 05:41:42;;;;;;;20.97;13.55;;;;;;;7.27;96.55;98911.70;1635091;86;25580;-69
2022/09/29 05:44:08;;;;;;;24.45;13.65;;;;;;;7.28;96.56;98918.64;1679701;85;27963;-69
2022/09/29 05:46:34;;;;;;;24.45;16.82;;;;;;;7.31;96.65;98921.26;1679495;85;25400;-69
2022/09/29 05:49:01;;;;;;;25.35;15.45;;;;;;;7.33;96.76;98920.94;1679709;84;25713;-70
2022/09/29 05:51:27;;;;;;;23.47;14.65;;;;;;;7.36;96.90;98928.38;1679547;85;25685;-70
2022/09/29 05:53:54;;;;;;;21.30;14.80;;;;;;;7.38;96.95;98927.49;1679664;85;25551;-70
2022/09/29 05:56:24;;;;;;;21.95;14.63;;;;;;;7.40;97.23;98926.61;1678052;85;27328;-70
2022/09/29 05:58:52;;;;;;;23.47;15.95;;;;;;;7.43;97.01;98927.33;1671338;85;25705;-70
2022/09/29 06:01:23;;;;;;;27.07;18.62;;;;;;;7.43;96.77;98932.70;1681634;84;25674;-70
2022/09/29 06:03:52;;;;;;;26.52;19.98;;;;;;;7.48;97.16;98931.19;1679786;84;26219;-70
2022/09/29 06:06:22;;;;;;;23.67;17.60;;;;;;;7.52;97.20;98929.42;1677321;85;25634;-69
2022/09/29 06:08:49;;;;;;;24.72;15.38;;;;;;;7.56;97.34;98929.56;1677296;85;27338;-69
2022/09/29 06:11:23;;;;;;;26.27;19.98;;;;;;;7.61;97.99;98934.23;1677288;85;25663;-68
2022/09/29 06:13:52;;;;;;;29.10;16.32;;;;;;;7.72;98.40;98935.23;1675372;85;25447;-69
2022/09/29 06:16:26;;;;;;;49.57;45.07;;;;;;;7.77;98.52;98928.31;1677383;85;26175;-70
2022/09/29 06:18:52;;;;;;;67.55;61.92;;;;;;;7.81;98.25;98937.31;1671234;85;25398;-71
2022/09/29 06:21:24;;;;;;;83.12;76.20;;;;;;;7.84;97.94;98937.45;1670766;85;27433;-70
2022/09/29 06:23:53;;;;;;;92.62;85.25;;;;;;;7.91;98.08;98937.52;1633452;86;25687;-69
2022/09/29 06:26:21;;;;;;;86.72;79.80;;;;;;;7.94;97.62;98940.91;1671046;85;25634;-69
2022/09/29 06:28:47;;;;;;;104.85;96.22;;;;;;;7.96;97.54;98943.50;1672104;84;26181;-68
2022/09/29 06:31:18;;;;;;;94.15;86.53;;;;;;;8.01;97.78;98950.61;1671829;84;25712;-68
2022/09/29 06:33:45;;;;;;;25.40;15.83;;;;;;;8.04;97.79;98962.09;1670720;85;27349;-68
2022/09/29 06:39:27;;;;;;;33.38;27.42;;;;;;;8.13;97.74;98960.70;1670609;85;25696;-69
2022/09/29 06:41:55;;;;;;;22.42;13.32;;;;;;;8.15;97.97;98963.28;1623277;86;25659;-69
2022/09/29 06:44:24;;;;;;;26.68;14.03;;;;;;;8.19;97.59;98967.48;1670483;85;25670;-69
2022/09/29 06:46:52;;;;;;;25.62;14.53;;;;;;;8.18;97.46;98967.24;1670677;85;27399;-69
2022/09/29 06:49:19;;;;;;;28.70;14.98;;;;;;;8.18;97.30;98976.11;1670427;85;25757;-69
2022/09/29 06:51:46;;;;;;;27.77;14.87;;;;;;;8.19;97.05;98972.87;1670413;85;25396;-69
2022/09/29 06:54:15;;;;;;;24.80;14.55;;;;;;;8.20;97.37;98977.91;1670621;85;25663;-69
2022/09/29 06:56:42;;;;;;;26.43;14.93;;;;;;;8.26;97.99;98984.45;1670977;85;25788;-69
2022/09/29 06:59:08;;;;;;;26.27;15.58;;;;;;;8.27;97.64;98988.17;1670579;85;27331;-69
2022/09/29 07:01:34;;;;;;;40.73;36.58;;;;;;;8.29;97.51;98978.42;1670545;85;25819;-69
2022/09/29 07:04:01;;;;;;;38.20;33.23;;;;;;;8.30;97.65;98977.33;1670655;85;25780;-69
2022/09/29 07:06:29;;;;;;;35.30;31.10;;;;;;;8.36;97.46;98984.09;1670783;85;25616;-69
2022/09/29 07:08:57;;;;;;;32.78;15.85;;;;;;;8.39;97.18;98991.52;1671509;85;25722;-69
2022/09/29 07:11:25;;;;;;;26.33;15.23;;;;;;;8.43;97.75;98991.69;1670992;85;27334;-70
2022/09/29 07:13:51;;;;;;;25.55;15.88;;;;;;;8.45;97.41;98991.61;1670557;85;25657;-70
2022/09/29 07:16:18;;;;;;;26.82;15.85;;;;;;;8.51;98.06;98994.36;1670776;85;25402;-70
2022/09/29 07:18:45;;;;;;;29.30;19.60;;;;;;;8.58;98.06;98994.63;1669550;85;25613;-70
2022/09/29 07:21:16;;;;;;;31.45;21.42;;;;;;;8.65;98.44;98999.50;1671079;85;25773;-69
2022/09/29 07:23:45;;;;;;;23.92;14.63;;;;;;;8.67;98.00;99004.00;1670677;85;27375;-69
2022/09/29 07:26:13;;;;;;;28.80;15.58;;;;;;;8.69;97.88;99009.06;1668970;85;25737;-69
2022/09/29 07:28:40;;;;;;;25.75;15.35;;;;;;;8.71;96.73;99012.22;1669136;85;25731;-69
2022/09/29 07:31:10;;;;;;;24.32;15.43;;;;;;;8.71;96.33;99009.52;1670449;85;25745;-69
2022/09/29 07:33:36;;;;;;;24.27;15.15;;;;;;;8.76;97.13;99021.46;1670782;85;25445;-69
2022/09/29 07:36:04;;;;;;;26.52;14.83;;;;;;;8.81;97.12;99020.48;1671123;85;27417;-69
2022/09/29 07:38:31;;;;;;;24.72;14.20;;;;;;;8.83;96.32;99012.28;1616424;87;25757;-68
2022/09/29 07:41:04;;;;;;;22.25;13.85;;;;;;;8.88;96.83;99015.35;1670832;85;25470;-68
2022/09/29 07:43:31;;;;;;;24.77;21.40;;;;;;;8.96;97.01;99017.20;1671199;85;25662;-69
2022/09/29 07:45:59;;;;;;;26.80;16.70;;;;;;;9.02;97.31;99025.31;1670732;85;25463;-69
2022/09/29 07:48:26;;;;;;;21.62;13.98;;;;;;;9.04;96.63;99037.93;1633465;86;27350;-69
2022/09/29 07:51:01;;;;;;;28.42;24.12;;;;;;;9.11;97.47;99032.02;1670519;85;25439;-69
2022/09/29 07:53:30;;;;;;;63.10;57.98;;;;;;;9.22;98.52;99034.52;1670719;85;25570;-73
2022/09/29 07:56:04;;;;;;;94.25;86.63;;;;;;;9.27;97.53;99037.58;1640204;86;25649;-76
2022/09/29 07:58:31;;;;;;;92.78;85.87;;;;;;;9.25;95.65;99039.27;1670786;85;25691;-75
2022/09/29 08:01:00;;;;;;;93.37;86.17;;;;;;;9.25;95.59;99048.70;1670625;85;27325;-71
2022/09/29 08:03:28;;;;;;;92.27;85.42;;;;;;;9.21;94.44;99046.98;1670906;85;25655;-68
2022/09/29 08:05:58;;;;;;;91.42;84.62;;;;;;;9.16;94.10;99043.95;1615457;86;25639;-72
2022/09/29 08:08:26;;;;;;;93.75;86.92;;;;;;;9.10;93.19;99049.30;1646482;86;25747;-68
2022/09/29 08:10:52;;;;;;;93.20;86.15;;;;;;;9.11;94.24;99052.24;1664102;85;25412;-77
2022/09/29 08:13:18;;;;;;;92.08;85.22;;;;;;;9.18;95.01;99051.69;1652966;85;27426;-72
2022/09/29 08:15:45;;;;;;;93.50;86.75;;;;;;;9.24;95.16;99048.46;1633343;86;25723;-77
2022/09/29 08:18:11;;;;;;;89.97;83.33;;;;;;;9.34;95.67;99044.01;1650805;85;25966;-70
2022/09/29 08:20:37;;;;;;;90.40;83.70;;;;;;;9.39;95.30;99035.50;1664100;85;26194;-71
2022/09/29 08:23:03;;;;;;;91.35;84.60;;;;;;;9.46;95.45;99047.32;1664102;85;25596;-72
2022/09/29 08:25:29;;;;;;;92.45;85.45;;;;;;;9.55;95.72;99045.89;1664314;85;27293;-73
2022/09/29 08:27:56;;;;;;;89.72;83.25;;;;;;;9.65;95.17;99052.79;1664149;85;25697;-74
2022/09/29 08:30:22;;;;;;;17.12;11.20;;;;;;;9.67;93.40;99057.29;1664260;84;25735;-72
2022/09/29 08:32:53;;;;;;;89.45;83.05;;;;;;;9.67;91.91;99066.20;1646625;86;25608;-72
2022/09/29 08:35:20;;;;;;;89.72;83.42;;;;;;;9.64;91.14;99066.08;1661438;84;25681;-69
2022/09/29 08:37:47;;;;;;;91.15;84.50;;;;;;;9.64;91.02;99074.18;1664303;84;27404;-70
2022/09/29 08:40:15;;;;;;;77.27;71.55;;;;;;;9.71;91.08;99072.50;1664118;85;25985;-73
2022/09/29 08:43:02;;;;;;;90.15;83.62;;;;;;;9.92;92.53;99079.77;1669116;84;25648;-72
2022/09/29 08:45:33;;;;;;;88.05;81.57;;;;;;;9.92;90.81;99073.01;1693003;84;26166;-71
2022/09/29 08:48:10;;;;;;;87.97;81.47;;;;;;;9.94;90.83;99078.08;1629346;86;25660;-77
2022/09/29 08:50:41;;;;;;;88.33;82.00;;;;;;;9.94;91.03;99076.16;1675797;84;27411;-72
2022/09/29 08:53:12;;;;;;;88.70;81.92;;;;;;;10.02;90.72;99083.95;1668978;84;25484;-71
2022/09/29 08:55:52;;;;;;;81.17;74.65;;;;;;;10.01;89.90;99076.42;1679431;84;25431;-68
2022/09/29 08:58:19;;;;;;;16.17;10.55;;;;;;;10.19;92.11;99090.52;1630311;87;26154;-72
2022/09/29 09:01:24;;;;;;;13.32;9.05;;;;;;;10.36;89.48;99090.91;1676063;84;25569;-72
2022/09/29 09:04:27;;;;;;;14.40;8.83;;;;;;;10.37;89.15;99082.23;1692887;84;27327;-73
2022/09/29 09:07:16;;;;;;;14.70;10.10;;;;;;;10.67;91.25;99094.19;1692824;84;26139;-73
2022/09/29 09:09:57;;;;;;;12.03;9.25;;;;;;;10.87;89.66;99095.20;1661553;84;25572;-69
2022/09/29 09:12:34;;;;;;;37.83;34.73;;;;;;;11.14;91.82;99096.40;1692568;83;25627;-70
2022/09/29 09:15:36;;;;;;;15.90;9.68;;;;;;;11.45;91.26;99099.02;1682913;84;25411;-71
2022/09/29 09:18:23;;;;;;;14.83;9.08;;;;;;;11.64;88.96;99098.38;1662465;84;28022;-72
2022/09/29 09:21:10;;;;;;;14.83;9.63;;;;;;;11.50;86.22;99109.03;1665196;85;25690;-69
2022/09/29 09:23:59;;;;;;;12.90;9.53;;;;;;;11.43;85.48;99104.78;1666849;85;25581;-72
2022/09/29 09:26:42;;;;;;;12.05;9.03;;;;;;;11.39;85.58;99109.28;1622726;86;27830;-72
2022/09/29 09:29:35;;;;;;;16.52;8.90;;;;;;;11.28;85.01;99113.62;1670483;85;25637;-69
2022/09/29 09:32:06;;;;;;;10.98;8.40;;;;;;;11.21;84.21;99110.14;1669473;85;27339;-72
2022/09/29 09:34:46;;;;;;;12.68;8.70;;;;;;;11.20;85.49;99108.00;1633175;87;25775;-71
2022/09/29 09:37:20;;;;;;;11.20;8.05;;;;;;;11.26;86.20;99111.83;1670500;85;25728;-71
2022/09/29 09:40:01;;;;;;;14.40;8.93;;;;;;;11.23;85.09;99117.92;1670320;85;26490;-72
2022/09/29 09:42:36;;;;;;;12.33;9.08;;;;;;;11.16;83.88;99127.39;1649427;86;25567;-73
2022/09/29 09:45:17;;;;;;;12.23;8.65;;;;;;;11.13;84.20;99126.71;1669352;85;27421;-73
2022/09/29 09:47:52;;;;;;;13.93;9.58;;;;;;;11.09;83.58;99131.24;1654088;85;26467;-74
2022/09/29 09:50:22;;;;;;;14.05;8.45;;;;;;;11.03;83.05;99137.45;1673541;85;25975;-73
2022/09/29 09:52:52;;;;;;;26.77;15.43;;;;;;;10.96;83.15;99135.86;1672551;85;26661;-67
2022/09/29 09:55:23;;;;;;;17.10;10.08;;;;;;;10.94;83.80;99133.28;1672537;85;25624;-68
2022/09/29 09:58:27;;;;;;;13.20;10.25;;;;;;;10.98;84.30;99135.53;1672682;85;27362;-67
2022/09/29 10:01:00;;;;;;;88.10;82.17;;;;;;;11.08;85.04;99136.98;1672628;85;25597;-67
2022/09/29 10:03:29;;;;;;;90.38;84.07;;;;;;;11.33;85.89;99146.64;1672533;85;25673;-67
2022/09/29 10:05:56;;;;;;;88.30;82.27;;;;;;;11.41;83.70;99138.18;1619669;87;25657;-68
2022/09/29 10:08:38;;;;;;;87.78;81.87;;;;;;;11.45;83.52;99149.89;1619758;88;25425;-67
2022/09/29 10:11:24;;;;;;;85.62;79.80;;;;;;;11.46;82.65;99147.42;1672625;85;27757;-73
2022/09/29 10:13:58;;;;;;;60.30;56.15;;;;;;;11.61;84.78;99153.23;1672569;84;26274;-71
2022/09/29 10:16:33;;;;;;;86.90;80.90;;;;;;;11.96;83.65;99152.90;1669774;85;25851;-72
2022/09/29 10:18:59;;;;;;;87.40;81.25;;;;;;;12.14;82.97;99159.39;1649937;85;25910;-71
2022/09/29 10:21:37;;;;;;;85.03;79.15;;;;;;;12.31;82.74;99156.92;1634805;87;25565;-69
2022/09/29 10:24:20;;;;;;;88.70;82.30;;;;;;;12.45;82.63;99157.85;1634712;87;27321;-67
2022/09/29 10:26:50;;;;;;;87.95;81.90;;;;;;;12.53;82.05;99160.94;1633992;87;25767;-68
2022/09/29 10:29:34;;;;;;;32.30;29.48;;;;;;;12.57;81.01;99166.48;1634801;87;25548;-67
2022/09/29 10:32:09;;;;;;;87.12;80.85;;;;;;;12.51;79.98;99169.45;1612975;87;25692;-68
2022/09/29 10:34:53;;;;;;;12.82;8.65;;;;;;;12.49;80.03;99176.34;1634800;87;25477;-68
2022/09/29 10:37:36;;;;;;;86.35;80.50;;;;;;;12.48;79.83;99173.41;1634837;87;29594;-70
2022/09/29 10:40:16;;;;;;;26.48;24.12;;;;;;;12.45;79.34;99169.48;1634215;87;25783;-71
2022/09/29 10:42:47;;;;;;;83.25;77.45;;;;;;;12.41;79.26;99177.30;1656415;86;25623;-70
2022/09/29 10:45:27;;;;;;;14.15;8.05;;;;;;;12.36;78.68;99177.00;1634816;87;25664;-72
2022/09/29 10:48:11;;;;;;;8.88;7.28;;;;;;;12.32;78.77;99180.17;1634475;87;25688;-74
2022/09/29 10:50:51;;;;;;;10.25;7.60;;;;;;;12.30;78.56;99179.74;1619514;87;29613;-68
2022/09/29 10:53:36;;;;;;;9.48;7.83;;;;;;;12.19;77.89;99179.47;1653148;85;25439;-71
2022/09/29 10:56:24;;;;;;;9.40;7.55;;;;;;;12.15;78.50;99181.28;1671974;85;25679;-71
2022/09/29 10:59:00;;;;;;;12.33;7.85;;;;;;;12.11;78.54;99183.11;1664705;85;26737;-70
2022/09/29 11:01:30;;;;;;;11.18;8.35;;;;;;;12.05;78.65;99181.78;1672614;85;25614;-69
2022/09/29 11:04:02;;;;;;;83.75;78.07;;;;;;;12.02;78.68;99183.81;1665456;85;27343;-69
2022/09/29 11:06:33;;;;;;;83.42;77.95;;;;;;;11.99;78.82;99189.95;1672643;85;25743;-67
2022/09/29 11:09:16;;;;;;;83.22;77.53;;;;;;;11.94;78.67;99197.17;1656448;86;25669;-69
2022/09/29 11:11:55;;;;;;;9.53;7.65;;;;;;;11.91;78.30;99195.15;1619464;87;26643;-68
2022/09/29 11:14:33;;;;;;;12.93;8.50;;;;;;;11.90;78.92;99201.69;1656724;85;25653;-69
2022/09/29 11:17:01;;;;;;;9.85;7.33;;;;;;;11.89;78.81;99197.39;1671788;85;28250;-69
2022/09/29 11:19:30;;;;;;;9.88;7.87;;;;;;;11.94;79.16;99207.23;1677057;85;25763;-68
2022/09/29 11:22:11;;;;;;;10.85;8.18;;;;;;;12.02;80.01;99206.30;1682310;85;25703;-70
2022/09/29 11:25:12;;;;;;;10.50;8.10;;;;;;;12.19;80.21;99212.55;1682266;85;26390;-70
2022/09/29 11:28:13;;;;;;;11.05;7.60;;;;;;;12.37;80.39;99209.75;1682667;85;25775;-70
2022/09/29 11:30:57;;;;;;;11.90;7.65;;;;;;;12.51;78.67;99214.75;1682777;84;27415;-73
2022/09/29 11:33:41;;;;;;;12.07;7.70;;;;;;;12.49;78.00;99215.09;1666060;86;25779;-72
2022/09/29 11:36:31;;;;;;;10.95;8.08;;;;;;;12.52;77.95;99221.77;1666583;86;25865;-71
2022/09/29 11:39:05;;;;;;;11.20;8.13;;;;;;;12.56;77.66;99217.78;1651656;86;26506;-70
2022/09/29 11:42:10;;;;;;;14.93;9.15;;;;;;;12.57;77.49;99209.30;1623486;87;25810;-71
2022/09/29 11:44:58;;;;;;;10.95;7.72;;;;;;;12.56;77.06;99213.72;1628813;86;27996;-70
2022/09/29 11:47:51;;;;;;;10.85;8.30;;;;;;;12.57;77.16;99213.38;1646579;86;25736;-69
2022/09/29 11:50:54;;;;;;;11.57;7.45;;;;;;;12.62;77.12;99212.34;1645367;86;26392;-71
2022/09/29 11:53:59;;;;;;;13.32;11.22;;;;;;;12.62;76.59;99213.11;1650595;86;25751;-71